sensor_id;sensor_type;location;lat;lon;timestamp;pressure;altitude;pressure_sealevel;temperature
15144;BMP180;7672;50.834;6.286;2023-06-26T00:01:44;99478.91;;;24.91
15144;BMP180;7672;50.834;6.286;2023-06-26T00:04:11;99477.34;;;24.89
15144;BMP180;7672;50.834;6.286;2023-06-26T00:06:41;99476.63;;;24.87
15144;BMP180;7672;50.834;6.286;2023-06-26T00:09:09;99469.88;;;24.85
15144;BMP180;7672;50.834;6.286;2023-06-26T00:11:36;99464.94;;;24.80
15144;BMP180;7672;50.834;6.286;2023-06-26T00:14:04;99470.19;;;24.79
15144;BMP180;7672;50.834;6.286;2023-06-26T00:16:31;99469.47;;;24.77
15144;BMP180;7672;50.834;6.286;2023-06-26T00:18:59;99470.47;;;24.74
15144;BMP180;7672;50.834;6.286;2023-06-26T00:21:27;99468.03;;;24.71
15144;BMP180;7672;50.834;6.286;2023-06-26T00:23:54;99466.56;;;24.67
15144;BMP180;7672;50.834;6.286;2023-06-26T00:26:21;99462.41;;;24.65
15144;BMP180;7672;50.834;6.286;2023-06-26T00:28:48;99465.16;;;24.62
15144;BMP180;7672;50.834;6.286;2023-06-26T00:31:15;99465.25;;;24.60
15144;BMP180;7672;50.834;6.286;2023-06-26T00:33:42;99471.44;;;24.58
15144;BMP180;7672;50.834;6.286;2023-06-26T00:36:10;99463.00;;;24.54
15144;BMP180;7672;50.834;6.286;2023-06-26T00:38:37;99473.44;;;24.53
15144;BMP180;7672;50.834;6.286;2023-06-26T00:41:05;99463.34;;;24.48
15144;BMP180;7672;50.834;6.286;2023-06-26T00:43:39;99467.78;;;24.46
15144;BMP180;7672;50.834;6.286;2023-06-26T00:46:13;99468.59;;;24.47
15144;BMP180;7672;50.834;6.286;2023-06-26T00:48:43;99467.09;;;24.43
15144;BMP180;7672;50.834;6.286;2023-06-26T00:51:13;99468.00;;;24.42
15144;BMP180;7672;50.834;6.286;2023-06-26T00:53:40;99468.78;;;24.44
15144;BMP180;7672;50.834;6.286;2023-06-26T00:56:08;99468.00;;;24.42
15144;BMP180;7672;50.834;6.286;2023-06-26T00:58:36;99471.44;;;24.42
15144;BMP180;7672;50.834;6.286;2023-06-26T01:01:03;99473.19;;;24.42
15144;BMP180;7672;50.834;6.286;2023-06-26T01:03:33;99480.94;;;24.42
15144;BMP180;7672;50.834;6.286;2023-06-26T01:06:00;99470.59;;;24.42
15144;BMP180;7672;50.834;6.286;2023-06-26T01:08:29;99468.88;;;24.42
15144;BMP180;7672;50.834;6.286;2023-06-26T01:10:56;99470.44;;;24.45
15144;BMP180;7672;50.834;6.286;2023-06-26T01:13:24;99460.94;;;24.45
15144;BMP180;7672;50.834;6.286;2023-06-26T01:15:52;99467.59;;;24.49
15144;BMP180;7672;50.834;6.286;2023-06-26T01:18:20;99471.75;;;24.52
15144;BMP180;7672;50.834;6.286;2023-06-26T01:20:48;99461.31;;;24.53
15144;BMP180;7672;50.834;6.286;2023-06-26T01:23:29;99466.41;;;24.55
15144;BMP180;7672;50.834;6.286;2023-06-26T01:26:15;99470.66;;;24.56
15144;BMP180;7672;50.834;6.286;2023-06-26T01:28:44;99470.50;;;24.59
15144;BMP180;7672;50.834;6.286;2023-06-26T01:31:13;99466.91;;;24.61
15144;BMP180;7672;50.834;6.286;2023-06-26T01:33:41;99459.06;;;24.63
15144;BMP180;7672;50.834;6.286;2023-06-26T01:36:10;99460.72;;;24.64
15144;BMP180;7672;50.834;6.286;2023-06-26T01:38:37;99460.72;;;24.64
15144;BMP180;7672;50.834;6.286;2023-06-26T01:41:06;99463.25;;;24.65
15144;BMP180;7672;50.834;6.286;2023-06-26T01:47:02;99462.66;;;24.60
15144;BMP180;7672;50.834;6.286;2023-06-26T01:55:05;99469.47;;;24.61
15144;BMP180;7672;50.834;6.286;2023-06-26T01:57:33;99471.91;;;24.64
15144;BMP180;7672;50.834;6.286;2023-06-26T02:00:03;99476.16;;;24.65
15144;BMP180;7672;50.834;6.286;2023-06-26T02:02:41;99472.63;;;24.66
15144;BMP180;7672;50.834;6.286;2023-06-26T02:05:13;99474.22;;;24.69
15144;BMP180;7672;50.834;6.286;2023-06-26T02:07:41;99482.66;;;24.72
15144;BMP180;7672;50.834;6.286;2023-06-26T02:10:09;99497.16;;;24.75
15144;BMP180;7672;50.834;6.286;2023-06-26T02:12:38;99500.50;;;24.77
15144;BMP180;7672;50.834;6.286;2023-06-26T02:15:05;99499.50;;;24.79
15144;BMP180;7672;50.834;6.286;2023-06-26T02:17:33;99495.13;;;24.80
15144;BMP180;7672;50.834;6.286;2023-06-26T02:20:00;99497.63;;;24.81
15144;BMP180;7672;50.834;6.286;2023-06-26T02:22:29;99505.38;;;24.81
15144;BMP180;7672;50.834;6.286;2023-06-26T02:24:56;99510.41;;;24.84
15144;BMP180;7672;50.834;6.286;2023-06-26T02:27:25;99505.97;;;24.86
15144;BMP180;7672;50.834;6.286;2023-06-26T02:29:53;99517.13;;;24.87
15144;BMP180;7672;50.834;6.286;2023-06-26T02:32:20;99513.63;;;24.88
15144;BMP180;7672;50.834;6.286;2023-06-26T02:34:49;99516.13;;;24.89
15144;BMP180;7672;50.834;6.286;2023-06-26T02:37:19;99508.38;;;24.89
15144;BMP180;7672;50.834;6.286;2023-06-26T02:39:47;99517.06;;;24.88
15144;BMP180;7672;50.834;6.286;2023-06-26T02:42:14;99523.06;;;24.89
15144;BMP180;7672;50.834;6.286;2023-06-26T02:44:41;99527.31;;;24.90
15144;BMP180;7672;50.834;6.286;2023-06-26T02:47:11;99530.00;;;24.88
15144;BMP180;7672;50.834;6.286;2023-06-26T02:49:41;99530.06;;;24.87
15144;BMP180;7672;50.834;6.286;2023-06-26T02:52:09;99532.72;;;24.85
15144;BMP180;7672;50.834;6.286;2023-06-26T02:54:36;99539.75;;;24.83
15144;BMP180;7672;50.834;6.286;2023-06-26T02:57:04;99542.34;;;24.83
15144;BMP180;7672;50.834;6.286;2023-06-26T02:59:33;99536.41;;;24.81
15144;BMP180;7672;50.834;6.286;2023-06-26T03:02:01;99545.00;;;24.82
15144;BMP180;7672;50.834;6.286;2023-06-26T03:04:33;99549.50;;;24.78
15144;BMP180;7672;50.834;6.286;2023-06-26T03:07:05;99546.16;;;24.76
15144;BMP180;7672;50.834;6.286;2023-06-26T03:09:33;99552.44;;;24.72
15144;BMP180;7672;50.834;6.286;2023-06-26T03:12:00;99542.34;;;24.68
15144;BMP180;7672;50.834;6.286;2023-06-26T03:14:27;99552.59;;;24.69
15144;BMP180;7672;50.834;6.286;2023-06-26T03:16:56;99550.16;;;24.66
15144;BMP180;7672;50.834;6.286;2023-06-26T03:19:26;99548.59;;;24.64
15144;BMP180;7672;50.834;6.286;2023-06-26T03:22:12;99547.19;;;24.58
15144;BMP180;7672;50.834;6.286;2023-06-26T03:24:39;99546.34;;;24.58
15144;BMP180;7672;50.834;6.286;2023-06-26T03:27:07;99542.19;;;24.55
15144;BMP180;7672;50.834;6.286;2023-06-26T03:29:36;99548.34;;;24.53
15144;BMP180;7672;50.834;6.286;2023-06-26T03:32:04;99544.19;;;24.50
15144;BMP180;7672;50.834;6.286;2023-06-26T03:34:31;99550.34;;;24.48
15144;BMP180;7672;50.834;6.286;2023-06-26T03:36:59;99539.34;;;24.44
15144;BMP180;7672;50.834;6.286;2023-06-26T03:39:26;99543.84;;;24.41
15144;BMP180;7672;50.834;6.286;2023-06-26T03:41:53;99549.09;;;24.39
15144;BMP180;7672;50.834;6.286;2023-06-26T03:44:22;99545.75;;;24.37
15144;BMP180;7672;50.834;6.286;2023-06-26T03:46:49;99544.97;;;24.35
15144;BMP180;7672;50.834;6.286;2023-06-26T03:49:17;99548.56;;;24.33
15144;BMP180;7672;50.834;6.286;2023-06-26T03:51:45;99546.78;;;24.33
15144;BMP180;7672;50.834;6.286;2023-06-26T03:54:13;99548.56;;;24.33
15144;BMP180;7672;50.834;6.286;2023-06-26T03:56:42;99553.81;;;24.31
15144;BMP180;7672;50.834;6.286;2023-06-26T03:59:10;99555.47;;;24.32
15144;BMP180;7672;50.834;6.286;2023-06-26T04:01:38;99562.28;;;24.33
15144;BMP180;7672;50.834;6.286;2023-06-26T04:04:05;99570.03;;;24.33
15144;BMP180;7672;50.834;6.286;2023-06-26T04:06:33;99577.75;;;24.35
15144;BMP180;7672;50.834;6.286;2023-06-26T04:09:00;99574.31;;;24.34
15144;BMP180;7672;50.834;6.286;2023-06-26T04:11:27;99572.56;;;24.35
15144;BMP180;7672;50.834;6.286;2023-06-26T04:13:55;99582.97;;;24.33
15144;BMP180;7672;50.834;6.286;2023-06-26T04:16:23;99584.81;;;24.31
15144;BMP180;7672;50.834;6.286;2023-06-26T04:18:52;99583.91;;;24.32
15144;BMP180;7672;50.834;6.286;2023-06-26T04:21:20;99595.13;;;24.31
15144;BMP180;7672;50.834;6.286;2023-06-26T04:23:47;99592.56;;;24.31
15144;BMP180;7672;50.834;6.286;2023-06-26T04:26:14;99599.41;;;24.32
15144;BMP180;7672;50.834;6.286;2023-06-26T04:28:43;99588.88;;;24.35
15144;BMP180;7672;50.834;6.286;2023-06-26T04:31:10;99593.97;;;24.37
15144;BMP180;7672;50.834;6.286;2023-06-26T04:33:38;99604.19;;;24.40
15144;BMP180;7672;50.834;6.286;2023-06-26T04:36:09;99601.63;;;24.40
15144;BMP180;7672;50.834;6.286;2023-06-26T04:38:36;99599.09;;;24.38
15144;BMP180;7672;50.834;6.286;2023-06-26T04:41:03;99600.75;;;24.39
15144;BMP180;7672;50.834;6.286;2023-06-26T04:43:31;99604.94;;;24.42
15144;BMP180;7672;50.834;6.286;2023-06-26T04:45:58;99608.09;;;24.47
15144;BMP180;7672;50.834;6.286;2023-06-26T04:48:25;99614.78;;;24.51
15144;BMP180;7672;50.834;6.286;2023-06-26T04:50:55;99615.44;;;24.54
15144;BMP180;7672;50.834;6.286;2023-06-26T04:53:23;99614.38;;;24.58
15144;BMP180;7672;50.834;6.286;2023-06-26T04:55:53;99617.38;;;24.66
15144;BMP180;7672;50.834;6.286;2023-06-26T04:58:20;99616.13;;;24.73
15144;BMP180;7672;50.834;6.286;2023-06-26T05:00:48;99626.72;;;24.84
15144;BMP180;7672;50.834;6.286;2023-06-26T05:03:17;99616.63;;;24.95
15144;BMP180;7672;50.834;6.286;2023-06-26T05:05:45;99617.63;;;25.08
15144;BMP180;7672;50.834;6.286;2023-06-26T05:08:23;99613.38;;;25.22
15144;BMP180;7672;50.834;6.286;2023-06-26T05:10:50;99608.16;;;25.38
15144;BMP180;7672;50.834;6.286;2023-06-26T05:13:17;99615.06;;;25.53
15144;BMP180;7672;50.834;6.286;2023-06-26T05:15:47;99618.59;;;25.65
15144;BMP180;7672;50.834;6.286;2023-06-26T05:18:14;99620.59;;;25.76
15144;BMP180;7672;50.834;6.286;2023-06-26T05:20:41;99621.91;;;25.83
15144;BMP180;7672;50.834;6.286;2023-06-26T05:23:11;99629.25;;;25.90
15144;BMP180;7672;50.834;6.286;2023-06-26T05:25:40;99636.47;;;25.99
15144;BMP180;7672;50.834;6.286;2023-06-26T05:28:08;99641.09;;;26.08
15144;BMP180;7672;50.834;6.286;2023-06-26T05:30:38;99630.19;;;26.17
15144;BMP180;7672;50.834;6.286;2023-06-26T05:33:06;99640.56;;;26.31
15144;BMP180;7672;50.834;6.286;2023-06-26T05:35:36;99636.41;;;26.42
15144;BMP180;7672;50.834;6.286;2023-06-26T05:38:04;99638.25;;;26.54
15144;BMP180;7672;50.834;6.286;2023-06-26T05:40:32;99649.53;;;26.67
15144;BMP180;7672;50.834;6.286;2023-06-26T05:43:01;99653.13;;;26.79
15144;BMP180;7672;50.834;6.286;2023-06-26T05:45:28;99656.09;;;26.86
15144;BMP180;7672;50.834;6.286;2023-06-26T05:47:56;99654.03;;;26.91
15144;BMP180;7672;50.834;6.286;2023-06-26T05:50:23;99655.53;;;26.95
15144;BMP180;7672;50.834;6.286;2023-06-26T05:52:51;99655.13;;;27.01
15144;BMP180;7672;50.834;6.286;2023-06-26T05:55:19;99647.91;;;27.06
15144;BMP180;7672;50.834;6.286;2023-06-26T05:57:47;99654.47;;;27.12
15144;BMP180;7672;50.834;6.286;2023-06-26T06:00:17;99654.91;;;27.18
15144;BMP180;7672;50.834;6.286;2023-06-26T06:02:45;99653.59;;;27.25
15144;BMP180;7672;50.834;6.286;2023-06-26T06:05:12;99658.00;;;27.37
15144;BMP180;7672;50.834;6.286;2023-06-26T06:07:40;99663.31;;;27.48
15144;BMP180;7672;50.834;6.286;2023-06-26T06:10:07;99661.72;;;27.59
15144;BMP180;7672;50.834;6.286;2023-06-26T06:12:34;99663.53;;;27.71
15144;BMP180;7672;50.834;6.286;2023-06-26T06:15:01;99660.97;;;27.84
15144;BMP180;7672;50.834;6.286;2023-06-26T06:17:29;99665.84;;;28.01
15144;BMP180;7672;50.834;6.286;2023-06-26T06:19:57;99678.75;;;28.14
15144;BMP180;7672;50.834;6.286;2023-06-26T06:22:24;99680.16;;;28.32
15144;BMP180;7672;50.834;6.286;2023-06-26T06:24:52;99676.50;;;28.47
15144;BMP180;7672;50.834;6.286;2023-06-26T06:27:19;99687.41;;;28.65
15144;BMP180;7672;50.834;6.286;2023-06-26T06:29:46;99693.13;;;28.82
15144;BMP180;7672;50.834;6.286;2023-06-26T06:32:13;99705.56;;;29.02
15144;BMP180;7672;50.834;6.286;2023-06-26T06:34:40;99708.22;;;29.25
15144;BMP180;7672;50.834;6.286;2023-06-26T06:37:07;99703.47;;;29.42
15144;BMP180;7672;50.834;6.286;2023-06-26T06:39:34;99716.56;;;29.53
15144;BMP180;7672;50.834;6.286;2023-06-26T06:42:02;99724.13;;;29.56
15144;BMP180;7672;50.834;6.286;2023-06-26T06:44:29;99729.34;;;29.56
15144;BMP180;7672;50.834;6.286;2023-06-26T06:46:57;99740.00;;;29.53
15144;BMP180;7672;50.834;6.286;2023-06-26T06:49:25;99743.25;;;29.44
15144;BMP180;7672;50.834;6.286;2023-06-26T06:51:52;99748.78;;;29.40
15144;BMP180;7672;50.834;6.286;2023-06-26T06:54:21;99750.88;;;29.35
15144;BMP180;7672;50.834;6.286;2023-06-26T06:56:48;99754.53;;;29.33
15144;BMP180;7672;50.834;6.286;2023-06-26T06:59:15;99757.13;;;29.33
15144;BMP180;7672;50.834;6.286;2023-06-26T07:01:42;99762.25;;;29.34
15144;BMP180;7672;50.834;6.286;2023-06-26T07:04:10;99768.19;;;29.36
15144;BMP180;7672;50.834;6.286;2023-06-26T07:06:37;99760.56;;;29.45
15144;BMP180;7672;50.834;6.286;2023-06-26T07:09:04;99761.47;;;29.57
15144;BMP180;7672;50.834;6.286;2023-06-26T07:11:32;99753.34;;;29.72
15144;BMP180;7672;50.834;6.286;2023-06-26T07:13:59;99747.25;;;29.84
15144;BMP180;7672;50.834;6.286;2023-06-26T07:16:26;99761.06;;;29.97
15144;BMP180;7672;50.834;6.286;2023-06-26T07:18:54;99755.91;;;30.08
15144;BMP180;7672;50.834;6.286;2023-06-26T07:21:21;99754.53;;;30.26
15144;BMP180;7672;50.834;6.286;2023-06-26T07:23:52;99760.91;;;30.45
15144;BMP180;7672;50.834;6.286;2023-06-26T07:26:19;99759.97;;;30.68
15144;BMP180;7672;50.834;6.286;2023-06-26T07:29:06;99761.78;;;31.00
15144;BMP180;7672;50.834;6.286;2023-06-26T07:31:33;99761.00;;;31.31
15144;BMP180;7672;50.834;6.286;2023-06-26T07:34:01;99771.31;;;31.65
15144;BMP180;7672;50.834;6.286;2023-06-26T07:36:28;99776.06;;;32.02
15144;BMP180;7672;50.834;6.286;2023-06-26T07:38:55;99778.38;;;32.37
15144;BMP180;7672;50.834;6.286;2023-06-26T07:41:22;99774.06;;;32.67
15144;BMP180;7672;50.834;6.286;2023-06-26T07:43:49;99771.69;;;32.94
15144;BMP180;7672;50.834;6.286;2023-06-26T07:46:16;99781.47;;;33.22
15144;BMP180;7672;50.834;6.286;2023-06-26T07:48:43;99782.53;;;33.49
15144;BMP180;7672;50.834;6.286;2023-06-26T07:51:11;99790.19;;;33.80
15144;BMP180;7672;50.834;6.286;2023-06-26T07:53:38;99788.16;;;34.12
15144;BMP180;7672;50.834;6.286;2023-06-26T07:56:06;99803.16;;;34.38
15144;BMP180;7672;50.834;6.286;2023-06-26T07:58:33;99793.75;;;34.54
15144;BMP180;7672;50.834;6.286;2023-06-26T08:01:00;99795.78;;;34.79
15144;BMP180;7672;50.834;6.286;2023-06-26T08:03:28;99785.94;;;35.27
15144;BMP180;7672;50.834;6.286;2023-06-26T08:06:02;99803.97;;;35.49
15144;BMP180;7672;50.834;6.286;2023-06-26T08:08:30;99809.03;;;35.77
15144;BMP180;7672;50.834;6.286;2023-06-26T08:10:58;99807.34;;;36.20
15144;BMP180;7672;50.834;6.286;2023-06-26T08:13:25;99805.41;;;36.65
15144;BMP180;7672;50.834;6.286;2023-06-26T08:15:52;99811.94;;;37.11
15144;BMP180;7672;50.834;6.286;2023-06-26T08:18:19;99815.47;;;37.69
15144;BMP180;7672;50.834;6.286;2023-06-26T08:20:47;99821.19;;;38.22
15144;BMP180;7672;50.834;6.286;2023-06-26T08:23:14;99819.88;;;38.57
15144;BMP180;7672;50.834;6.286;2023-06-26T08:25:41;99826.56;;;38.92
15144;BMP180;7672;50.834;6.286;2023-06-26T08:28:08;99822.97;;;39.39
15144;BMP180;7672;50.834;6.286;2023-06-26T08:30:35;99824.09;;;39.82
15144;BMP180;7672;50.834;6.286;2023-06-26T08:33:03;99823.78;;;40.30
15144;BMP180;7672;50.834;6.286;2023-06-26T08:35:30;99827.72;;;40.85
15144;BMP180;7672;50.834;6.286;2023-06-26T08:37:58;99828.00;;;41.33
15144;BMP180;7672;50.834;6.286;2023-06-26T08:40:26;99835.84;;;41.70
15144;BMP180;7672;50.834;6.286;2023-06-26T08:42:53;99840.16;;;42.13
15144;BMP180;7672;50.834;6.286;2023-06-26T08:45:21;99839.25;;;42.41
15144;BMP180;7672;50.834;6.286;2023-06-26T08:47:53;99837.94;;;42.58
15144;BMP180;7672;50.834;6.286;2023-06-26T08:50:23;99844.72;;;42.60
15144;BMP180;7672;50.834;6.286;2023-06-26T08:53:04;99842.38;;;42.72
15144;BMP180;7672;50.834;6.286;2023-06-26T08:55:37;99835.53;;;42.90
15144;BMP180;7672;50.834;6.286;2023-06-26T08:58:05;99850.03;;;43.15
15144;BMP180;7672;50.834;6.286;2023-06-26T09:00:33;99836.94;;;43.54
15144;BMP180;7672;50.834;6.286;2023-06-26T09:03:03;99844.22;;;43.98
15144;BMP180;7672;50.834;6.286;2023-06-26T09:05:31;99838.94;;;44.18
15144;BMP180;7672;50.834;6.286;2023-06-26T09:08:03;99836.91;;;44.26
15144;BMP180;7672;50.834;6.286;2023-06-26T09:10:31;99841.59;;;44.18
15144;BMP180;7672;50.834;6.286;2023-06-26T09:12:58;99837.03;;;43.99
15144;BMP180;7672;50.834;6.286;2023-06-26T09:15:42;99831.38;;;43.49
15144;BMP180;7672;50.834;6.286;2023-06-26T09:18:10;99831.72;;;42.99
15144;BMP180;7672;50.834;6.286;2023-06-26T09:20:37;99841.16;;;42.74
15144;BMP180;7672;50.834;6.286;2023-06-26T09:23:05;99837.84;;;42.45
15144;BMP180;7672;50.834;6.286;2023-06-26T09:25:33;99848.19;;;42.33
15144;BMP180;7672;50.834;6.286;2023-06-26T09:28:00;99859.06;;;42.38
15144;BMP180;7672;50.834;6.286;2023-06-26T09:30:28;99848.31;;;42.53
15144;BMP180;7672;50.834;6.286;2023-06-26T09:32:55;99857.38;;;42.86
15144;BMP180;7672;50.834;6.286;2023-06-26T09:35:22;99856.81;;;43.24
15144;BMP180;7672;50.834;6.286;2023-06-26T09:37:49;99849.88;;;43.69
15144;BMP180;7672;50.834;6.286;2023-06-26T09:40:16;99867.19;;;44.06
15144;BMP180;7672;50.834;6.286;2023-06-26T09:42:44;99859.22;;;44.12
15144;BMP180;7672;50.834;6.286;2023-06-26T09:45:18;99866.00;;;44.34
15144;BMP180;7672;50.834;6.286;2023-06-26T09:47:46;99871.34;;;44.27
15144;BMP180;7672;50.834;6.286;2023-06-26T09:50:23;99873.19;;;43.55
15144;BMP180;7672;50.834;6.286;2023-06-26T09:52:52;99865.25;;;43.34
15144;BMP180;7672;50.834;6.286;2023-06-26T09:55:20;99878.06;;;43.45
15144;BMP180;7672;50.834;6.286;2023-06-26T09:57:51;99871.88;;;43.91
15144;BMP180;7672;50.834;6.286;2023-06-26T10:00:19;99878.66;;;43.93
15144;BMP180;7672;50.834;6.286;2023-06-26T10:02:46;99884.59;;;43.95
15144;BMP180;7672;50.834;6.286;2023-06-26T10:05:14;99884.47;;;43.63
15144;BMP180;7672;50.834;6.286;2023-06-26T10:07:41;99885.84;;;43.46
15144;BMP180;7672;50.834;6.286;2023-06-26T10:10:10;99884.84;;;43.20
15144;BMP180;7672;50.834;6.286;2023-06-26T10:12:37;99885.88;;;43.25
15144;BMP180;7672;50.834;6.286;2023-06-26T10:15:08;99889.00;;;43.35
15144;BMP180;7672;50.834;6.286;2023-06-26T10:17:42;99890.88;;;43.75
15144;BMP180;7672;50.834;6.286;2023-06-26T10:20:10;99883.78;;;43.48
15144;BMP180;7672;50.834;6.286;2023-06-26T10:22:46;99881.38;;;43.19
15144;BMP180;7672;50.834;6.286;2023-06-26T10:25:19;99880.31;;;43.48
15144;BMP180;7672;50.834;6.286;2023-06-26T10:27:54;99890.16;;;44.00
15144;BMP180;7672;50.834;6.286;2023-06-26T10:30:28;99892.63;;;44.08
15144;BMP180;7672;50.834;6.286;2023-06-26T10:32:56;99889.06;;;43.82
15144;BMP180;7672;50.834;6.286;2023-06-26T10:35:24;99888.31;;;44.14
15144;BMP180;7672;50.834;6.286;2023-06-26T10:38:00;99886.53;;;44.66
15144;BMP180;7672;50.834;6.286;2023-06-26T10:40:44;99882.81;;;45.18
15144;BMP180;7672;50.834;6.286;2023-06-26T10:43:13;99894.59;;;45.61
15144;BMP180;7672;50.834;6.286;2023-06-26T10:45:54;99889.72;;;45.95
15144;BMP180;7672;50.834;6.286;2023-06-26T10:48:22;99890.63;;;46.14
15144;BMP180;7672;50.834;6.286;2023-06-26T10:50:50;99898.03;;;45.81
15144;BMP180;7672;50.834;6.286;2023-06-26T10:55:58;99891.44;;;46.21
15144;BMP180;7672;50.834;6.286;2023-06-26T11:01:18;99902.84;;;46.65
15144;BMP180;7672;50.834;6.286;2023-06-26T11:04:06;99902.88;;;46.58
15144;BMP180;7672;50.834;6.286;2023-06-26T11:06:36;99894.31;;;46.19
15144;BMP180;7672;50.834;6.286;2023-06-26T11:14:23;99906.66;;;45.07
15144;BMP180;7672;50.834;6.286;2023-06-26T11:16:51;99911.94;;;45.20
15144;BMP180;7672;50.834;6.286;2023-06-26T11:19:20;99907.22;;;45.22
15144;BMP180;7672;50.834;6.286;2023-06-26T11:21:47;99902.97;;;45.01
15144;BMP180;7672;50.834;6.286;2023-06-26T11:24:15;99910.38;;;44.74
15144;BMP180;7672;50.834;6.286;2023-06-26T11:26:44;99910.94;;;44.50
15144;BMP180;7672;50.834;6.286;2023-06-26T11:29:12;99903.50;;;44.13
15144;BMP180;7672;50.834;6.286;2023-06-26T11:31:41;99915.06;;;43.40
15144;BMP180;7672;50.834;6.286;2023-06-26T11:34:11;99922.47;;;42.62
15144;BMP180;7672;50.834;6.286;2023-06-26T11:36:42;99917.25;;;41.98
15144;BMP180;7672;50.834;6.286;2023-06-26T11:39:10;99915.94;;;41.45
15144;BMP180;7672;50.834;6.286;2023-06-26T11:41:39;99916.22;;;40.98
15144;BMP180;7672;50.834;6.286;2023-06-26T11:44:09;99913.47;;;40.55
15144;BMP180;7672;50.834;6.286;2023-06-26T11:46:37;99907.72;;;40.22
15144;BMP180;7672;50.834;6.286;2023-06-26T11:49:07;99908.59;;;39.92
15144;BMP180;7672;50.834;6.286;2023-06-26T11:51:35;99926.03;;;39.63
15144;BMP180;7672;50.834;6.286;2023-06-26T11:54:05;99915.22;;;39.34
15144;BMP180;7672;50.834;6.286;2023-06-26T11:56:32;99921.38;;;39.10
15144;BMP180;7672;50.834;6.286;2023-06-26T11:59:11;99915.28;;;38.86
15144;BMP180;7672;50.834;6.286;2023-06-26T12:01:42;99916.97;;;38.63
15144;BMP180;7672;50.834;6.286;2023-06-26T12:04:15;99928.97;;;38.42
15144;BMP180;7672;50.834;6.286;2023-06-26T12:06:48;99923.47;;;38.20
15144;BMP180;7672;50.834;6.286;2023-06-26T12:09:18;99923.56;;;37.94
15144;BMP180;7672;50.834;6.286;2023-06-26T12:11:51;99926.63;;;37.74
15144;BMP180;7672;50.834;6.286;2023-06-26T12:14:22;99933.78;;;37.56
15144;BMP180;7672;50.834;6.286;2023-06-26T12:16:49;99937.34;;;37.39
15144;BMP180;7672;50.834;6.286;2023-06-26T12:19:17;99940.81;;;37.22
15144;BMP180;7672;50.834;6.286;2023-06-26T12:21:47;99942.50;;;37.06
15144;BMP180;7672;50.834;6.286;2023-06-26T12:24:20;99949.34;;;36.91
15144;BMP180;7672;50.834;6.286;2023-06-26T12:26:52;99953.31;;;36.78
15144;BMP180;7672;50.834;6.286;2023-06-26T12:29:21;99952.56;;;36.68
15144;BMP180;7672;50.834;6.286;2023-06-26T12:31:53;99954.53;;;36.48
15144;BMP180;7672;50.834;6.286;2023-06-26T12:34:27;99965.91;;;36.22
15144;BMP180;7672;50.834;6.286;2023-06-26T12:37:04;99969.84;;;35.91
15144;BMP180;7672;50.834;6.286;2023-06-26T12:42:19;99964.19;;;35.50
15144;BMP180;7672;50.834;6.286;2023-06-26T12:44:47;99962.13;;;35.35
15144;BMP180;7672;50.834;6.286;2023-06-26T12:47:16;99959.13;;;35.20
15144;BMP180;7672;50.834;6.286;2023-06-26T12:49:49;99958.72;;;35.06
15144;BMP180;7672;50.834;6.286;2023-06-26T12:52:17;99958.88;;;34.95
15144;BMP180;7672;50.834;6.286;2023-06-26T12:54:52;99959.56;;;34.88
15144;BMP180;7672;50.834;6.286;2023-06-26T12:57:19;99963.28;;;34.76
15144;BMP180;7672;50.834;6.286;2023-06-26T12:59:47;99963.84;;;34.60
15144;BMP180;7672;50.834;6.286;2023-06-26T13:02:14;99959.72;;;34.49
15144;BMP180;7672;50.834;6.286;2023-06-26T13:04:41;99966.44;;;34.32
15144;BMP180;7672;50.834;6.286;2023-06-26T13:07:11;99963.94;;;34.21
15144;BMP180;7672;50.834;6.286;2023-06-26T13:09:39;99966.41;;;34.13
15144;BMP180;7672;50.834;6.286;2023-06-26T13:12:08;99959.34;;;34.04
15144;BMP180;7672;50.834;6.286;2023-06-26T13:14:35;99971.44;;;33.96
15144;BMP180;7672;50.834;6.286;2023-06-26T13:17:03;99969.88;;;33.84
15144;BMP180;7672;50.834;6.286;2023-06-26T13:19:33;99971.88;;;33.71
15144;BMP180;7672;50.834;6.286;2023-06-26T13:22:00;99983.59;;;33.67
15144;BMP180;7672;50.834;6.286;2023-06-26T13:24:28;99972.00;;;33.60
15144;BMP180;7672;50.834;6.286;2023-06-26T13:26:55;99968.22;;;33.53
15144;BMP180;7672;50.834;6.286;2023-06-26T13:29:22;99966.66;;;33.51
15144;BMP180;7672;50.834;6.286;2023-06-26T13:31:49;99965.13;;;33.48
15144;BMP180;7672;50.834;6.286;2023-06-26T13:34:22;99971.88;;;33.41
15144;BMP180;7672;50.834;6.286;2023-06-26T13:36:50;99972.25;;;33.37
15144;BMP180;7672;50.834;6.286;2023-06-26T13:39:17;99969.75;;;33.35
15144;BMP180;7672;50.834;6.286;2023-06-26T13:41:45;99963.94;;;33.32
15144;BMP180;7672;50.834;6.286;2023-06-26T13:44:13;99969.31;;;33.30
15144;BMP180;7672;50.834;6.286;2023-06-26T13:46:47;99973.47;;;33.33
15144;BMP180;7672;50.834;6.286;2023-06-26T13:49:14;99966.25;;;33.25
15144;BMP180;7672;50.834;6.286;2023-06-26T13:51:41;99970.81;;;33.23
15144;BMP180;7672;50.834;6.286;2023-06-26T13:54:13;99971.88;;;33.21
15144;BMP180;7672;50.834;6.286;2023-06-26T13:56:40;99976.41;;;33.19
15144;BMP180;7672;50.834;6.286;2023-06-26T13:59:07;99959.56;;;33.12
15144;BMP180;7672;50.834;6.286;2023-06-26T14:01:34;99971.38;;;33.07
15144;BMP180;7672;50.834;6.286;2023-06-26T14:04:01;99975.06;;;33.04
15144;BMP180;7672;50.834;6.286;2023-06-26T14:06:28;99978.31;;;32.97
15144;BMP180;7672;50.834;6.286;2023-06-26T14:08:57;99983.59;;;32.86
15144;BMP180;7672;50.834;6.286;2023-06-26T14:11:24;99980.78;;;32.78
15144;BMP180;7672;50.834;6.286;2023-06-26T14:13:52;99981.53;;;32.69
15144;BMP180;7672;50.834;6.286;2023-06-26T14:16:19;99991.78;;;32.61
15144;BMP180;7672;50.834;6.286;2023-06-26T14:18:47;99988.25;;;32.51
15144;BMP180;7672;50.834;6.286;2023-06-26T14:21:14;99986.47;;;32.41
15144;BMP180;7672;50.834;6.286;2023-06-26T14:23:43;99988.28;;;32.29
15144;BMP180;7672;50.834;6.286;2023-06-26T14:26:11;99979.41;;;32.21
15144;BMP180;7672;50.834;6.286;2023-06-26T14:28:38;99989.03;;;32.20
15144;BMP180;7672;50.834;6.286;2023-06-26T14:31:06;99990.09;;;32.18
15144;BMP180;7672;50.834;6.286;2023-06-26T14:33:33;99986.78;;;32.16
15144;BMP180;7672;50.834;6.286;2023-06-26T14:36:00;99974.78;;;32.13
15144;BMP180;7672;50.834;6.286;2023-06-26T14:38:27;99976.41;;;32.14
15144;BMP180;7672;50.834;6.286;2023-06-26T14:40:54;99985.25;;;32.13
15144;BMP180;7672;50.834;6.286;2023-06-26T14:43:22;99967.75;;;32.14
15144;BMP180;7672;50.834;6.286;2023-06-26T14:45:50;99974.78;;;32.13
15144;BMP180;7672;50.834;6.286;2023-06-26T14:48:17;99980.63;;;32.06
15144;BMP180;7672;50.834;6.286;2023-06-26T14:50:46;99975.97;;;31.98
15144;BMP180;7672;50.834;6.286;2023-06-26T14:53:13;99986.88;;;31.92